Zion National Park, UT

1:14 AM MDT on July 30, 2016 (GMT -0600)
Virgin, Utah | | Change Station
Active Advisory: Fire Weather Warning Active Notice: Record Report

Elev 3563 ft 37.20 °N, 113.16 °W | Updated 14 minutes ago

Clear
Clear
78.3 °F
Feels Like 79 °F
N
3.2
Wind Variable Wind from NW

Today
High -- | Low -- °F
--% Chance of Precip.
Yesterday
High -- | Low -- °F
Precip. -- in
Pressure 30.06 in
Visibility 10.0 miles
Clouds Clear
Heat Index 79 °F
Dew Point 49 °F
Humidity 36%
Rainfall 0.00 in
Snow Depth Not available.
6:35 AM 8:40 PM
Waning Crescent, 15% visible
METAR KAZC 300655Z AUTO 00000KT 10SM CLR 26/08 A3006 RMK AO2
Pressure 30.06 in
Visibility 10.0 miles
Clouds Clear
Heat Index 79 °F
Dew Point 49 °F
Humidity 36%
Rainfall 0.00 in
Snow Depth Not available.
6:35 AM 8:40 PM
Waning Crescent, 15% visible
METAR KAZC 300655Z AUTO 00000KT 10SM CLR 26/08 A3006 RMK AO2

10-Day Weather Forecast

Almanac

Astronomy

Jul. 30, 2016 Rise Set
Actual Time
Civil Twilight
Nautical Twilight
Astronomical Twilight
Moon
Length of Visible Light
Length of Day
Tomorrow will be .
, % of the Moon is Illuminated

Today's Extremes

State Highs State Lows

Community

WunderPhotos

Upload Photos

1,928,508 photos uploaded!

WunderBlog® & News

Nearby

Air Quality

  Air Quality AQ Index Pollutant
Not available.

Snow Depth

Station Depth Elevation

Earthquake Activity

City Distance Mag. Time & Date
Minimum magnitude displayed is 2.5.

Coastal Water Temperatures

Place Temperature

Stations

Nearby Weather Stations

Station Location Temp. Windchill Dew Point Humidity Wind Precip. Elev Updated Type
                   

Watches & Warnings

Fire Weather Warning
Issued: 5:24 PM MDT Jul. 29, 2016 – National Weather Service

... Red flag warning remains in effect until 10 PM MDT Saturday
for dry thunderstorms and gusty outflow winds for fire weather
zones 492... 493... 495... 497 and 498...

* affected area... fire weather zone 492 central Utah west
desert... fire weather zone 493 central Utah mountains... fire
weather zone 495 color Country West desert... fire weather zone
497 Mojave Desert and fire weather zone 498 Grand Staircase.

* Thunderstorms... isolated to scattered mainly dry thunderstorms
will exist primarily this evening... then develop again late
Saturday morning. These thunderstorms will continue through
the afternoon and evening hours Saturday.

* Outflow winds... gusty and erratic winds in excess of 40 mph
will be possible with any storms that develop.

* Impacts... the threat of lightning and gusty winds in addition to
very dry conditions will bring the potential of multiple new
fire starts.

Precautionary/preparedness actions...

A red flag warning means that critical fire weather conditions
are either occurring now... or will shortly. A combination of
strong winds... low relative humidity... and warm temperatures can
contribute to extreme fire behavior.